Time;durP1;ratioP1;P1;durP2;ratioP2;P2;SDS_P1;SDS_P2;PMS_P1;PMS_P2;Temp;Humidity;BMP_temperature;BMP_pressure;BME280_temperature;BME280_humidity;BME280_pressure;Samples;Min_cycle;Max_cycle;Signal;HPM_P1;HPM_P2
2021/07/06 06:42:38;;;;;;;2.70;1.00;;;;;;;24.91;58.33;98248.31;5089790;27;20910;-77
2021/07/06 06:45:09;;;;;;;4.03;1.20;;;;;;;23.94;57.71;98250.44;5089935;28;20048;-78
2021/07/06 06:47:36;;;;;;;3.50;1.20;;;;;;;23.70;59.90;98240.09;5089098;28;20055;-78
2021/07/06 06:50:03;;;;;;;2.42;1.42;;;;;;;23.63;60.15;98251.53;5088781;28;20419;-78
2021/07/06 06:52:30;;;;;;;3.05;0.93;;;;;;;24.02;60.99;98264.47;5088998;28;20060;-78
2021/07/06 06:54:57;;;;;;;2.45;0.90;;;;;;;24.60;59.52;98264.59;5088651;28;20117;-78
2021/07/06 06:57:24;;;;;;;5.78;1.33;;;;;;;24.60;59.58;98251.56;5088660;28;20055;-78
2021/07/06 06:59:52;;;;;;;9.50;1.33;;;;;;;25.27;55.93;98244.94;5088514;28;20108;-78
2021/07/06 07:02:20;;;;;;;3.28;1.00;;;;;;;25.58;55.98;98238.91;5087944;28;20049;-78
2021/07/06 07:04:49;;;;;;;5.53;1.35;;;;;;;25.62;54.97;98270.53;5088439;28;20143;-78
2021/07/06 07:07:16;;;;;;;7.70;1.25;;;;;;;25.46;54.14;98264.41;5088026;28;20052;-78
2021/07/06 07:09:43;;;;;;;2.47;1.20;;;;;;;25.40;55.50;98276.78;5088997;28;20056;-78
2021/07/06 07:12:10;;;;;;;4.25;1.00;;;;;;;25.66;55.47;98282.69;5088825;28;20054;-78
2021/07/06 07:14:38;;;;;;;4.85;0.80;;;;;;;25.84;54.90;98278.19;5088457;28;20063;-78
2021/07/06 07:17:06;;;;;;;3.28;0.93;;;;;;;25.61;56.08;98288.38;5088111;28;20491;-78
2021/07/06 07:19:34;;;;;;;1.90;1.10;;;;;;;25.18;57.68;98282.94;5088572;28;20101;-78
2021/07/06 07:22:01;;;;;;;2.75;0.85;;;;;;;25.00;59.66;98284.59;5088238;28;20052;-78
2021/07/06 07:24:28;;;;;;;1.67;1.00;;;;;;;24.48;60.75;98282.53;5088146;28;20514;-78
2021/07/06 07:26:55;;;;;;;2.53;1.05;;;;;;;24.32;60.62;98273.56;5088271;28;20045;-78
2021/07/06 07:29:22;;;;;;;3.55;1.13;;;;;;;24.68;59.58;98275.88;5088488;28;20052;-78
2021/07/06 07:31:49;;;;;;;2.53;0.80;;;;;;;24.53;58.58;98263.00;5088019;28;20048;-78
2021/07/06 07:34:17;;;;;;;4.28;0.90;;;;;;;24.83;61.54;98271.25;5088251;28;20048;-78
2021/07/06 07:36:44;;;;;;;4.25;1.13;;;;;;;25.15;57.65;98278.78;5088203;28;20048;-78
2021/07/06 07:39:11;;;;;;;2.30;1.05;;;;;;;25.60;55.94;98272.78;5086414;28;20044;-78
2021/07/06 07:41:38;;;;;;;1.63;1.00;;;;;;;25.76;55.74;98265.81;5076833;28;20044;-78
2021/07/06 07:44:05;;;;;;;3.13;1.23;;;;;;;26.27;56.07;98249.25;5086056;28;20044;-78
2021/07/06 07:46:32;;;;;;;0.93;0.80;;;;;;;26.52;54.97;98239.50;5067909;28;20048;-78
2021/07/06 07:49:02;;;;;;;1.63;0.73;;;;;;;26.82;54.80;98259.50;5085490;28;20067;-78
2021/07/06 07:51:30;;;;;;;;;;;;;;;27.05;53.40;98257.56;5086608;28;20049;-78
2021/07/06 07:53:56;;;;;;;2.78;1.00;;;;;;;27.26;51.00;98245.91;5074386;28;20342;-79
2021/07/06 07:56:23;;;;;;;2.63;1.20;;;;;;;27.12;50.68;98232.03;5072840;28;20098;-78
2021/07/06 07:58:52;;;;;;;4.28;0.95;;;;;;;27.16;53.87;98231.06;5060036;28;20057;-78
2021/07/06 08:01:19;;;;;;;0.80;0.80;;;;;;;27.18;53.00;98231.56;5059294;28;20064;-78
2021/07/06 08:03:45;;;;;;;0.70;0.70;;;;;;;27.30;51.50;98227.41;5072665;28;20053;-78
2021/07/06 08:06:12;;;;;;;4.57;1.02;;;;;;;27.24;53.20;98245.41;5068438;28;20460;-78
2021/07/06 08:08:40;;;;;;;1.00;0.88;;;;;;;26.85;53.66;98262.47;5054705;28;20049;-78
2021/07/06 08:11:07;;;;;;;3.42;1.15;;;;;;;26.63;55.29;98254.03;5058040;28;20110;-79
2021/07/06 08:13:34;;;;;;;6.75;1.00;;;;;;;26.36;56.36;98241.00;5073715;28;20106;-78
2021/07/06 08:16:03;;;;;;;1.88;0.90;;;;;;;26.03;56.20;98246.69;5068006;28;20057;-78
2021/07/06 08:18:29;;;;;;;8.47;1.50;;;;;;;25.96;58.23;98230.38;5054267;28;20495;-78
2021/07/06 08:20:57;;;;;;;1.60;0.90;;;;;;;25.78;56.35;98241.28;5058357;28;20044;-78
2021/07/06 08:23:23;;;;;;;5.28;0.88;;;;;;;25.60;57.81;98233.84;5071115;28;20040;-78
2021/07/06 08:25:52;;;;;;;4.88;1.92;;;;;;;25.51;57.52;98244.03;5067017;28;20062;-78
2021/07/06 08:28:21;;;;;;;2.80;0.80;;;;;;;25.86;56.10;98250.06;5062150;28;20052;-78
2021/07/06 08:30:48;;;;;;;5.72;0.93;;;;;;;26.31;54.22;98239.94;5072912;28;20511;-78
2021/07/06 08:33:15;;;;;;;2.35;1.10;;;;;;;26.72;51.94;98240.22;5071822;28;20052;-78
2021/07/06 08:35:42;;;;;;;3.42;1.02;;;;;;;27.04;51.17;98253.13;5073810;28;20052;-78
2021/07/06 08:38:09;;;;;;;2.80;1.20;;;;;;;26.87;52.21;98281.69;5070295;28;20053;-78
2021/07/06 08:40:36;;;;;;;2.67;0.88;;;;;;;27.02;52.20;98300.88;5056014;28;20420;-78
2021/07/06 08:43:07;;;;;;;0.77;0.75;;;;;;;27.25;50.11;98305.63;5071150;28;20474;-78
2021/07/06 08:45:34;;;;;;;2.28;0.80;;;;;;;27.40;49.58;98326.78;5053184;28;20358;-78
2021/07/06 08:48:01;;;;;;;1.75;0.90;;;;;;;26.80;51.43;98332.31;5053479;28;20052;-78
2021/07/06 08:50:28;;;;;;;2.03;1.08;;;;;;;26.41;52.85;98336.44;5052982;28;20562;-78
2021/07/06 08:52:56;;;;;;;3.35;0.95;;;;;;;26.53;54.49;98347.06;5053396;28;20060;-78
2021/07/06 08:55:23;;;;;;;1.40;0.70;;;;;;;26.06;53.82;98336.00;5065859;28;20044;-78
2021/07/06 08:57:53;;;;;;;1.23;0.98;;;;;;;26.03;56.58;98366.41;5066649;28;20416;-78
2021/07/06 09:00:21;;;;;;;1.90;0.82;;;;;;;25.94;53.46;98361.53;5057184;28;20052;-78
2021/07/06 09:02:56;;;;;;;3.57;0.90;;;;;;;25.87;52.68;98368.63;5061859;28;20049;-78
2021/07/06 09:05:23;;;;;;;1.38;0.90;;;;;;;25.72;52.15;98381.69;5071522;28;20056;-78
2021/07/06 09:07:50;;;;;;;2.17;1.02;;;;;;;25.52;53.28;98388.41;5056104;28;20049;-78
2021/07/06 09:10:19;;;;;;;2.70;0.80;;;;;;;25.84;53.87;98406.25;5073066;28;20090;-78
2021/07/06 09:12:46;;;;;;;5.07;0.95;;;;;;;25.66;54.27;98401.56;5055466;28;20098;-78
2021/07/06 09:15:24;;;;;;;2.00;1.20;;;;;;;25.46;56.70;98439.69;5053121;28;20134;-78
2021/07/06 09:18:09;;;;;;;2.38;1.10;;;;;;;24.99;58.20;98445.03;5057167;28;20037;-78
2021/07/06 09:20:37;;;;;;;2.53;1.00;;;;;;;24.98;60.93;98460.06;5056165;28;20037;-78
2021/07/06 09:23:25;;;;;;;2.40;1.10;;;;;;;24.42;58.28;98499.53;5071039;28;20059;-78
2021/07/06 09:26:21;;;;;;;9.55;1.33;;;;;;;23.58;61.45;98542.88;5058653;28;20056;-78
2021/07/06 09:28:50;;;;;;;5.95;1.70;;;;;;;22.87;62.64;98543.94;5034621;28;20097;-78
2021/07/06 09:31:25;;;;;;;2.20;1.30;;;;;;;22.36;64.83;98547.66;5072709;28;20496;-79
2021/07/06 09:33:56;;;;;;;3.28;1.20;;;;;;;22.22;65.87;98564.78;5055740;28;20045;-79
2021/07/06 09:36:32;;;;;;;2.40;1.30;;;;;;;22.09;67.23;98588.28;5059625;28;20118;-80
2021/07/06 09:39:09;;;;;;;4.97;1.40;;;;;;;22.15;67.75;98589.13;5063809;28;20080;-79
2021/07/06 09:41:38;;;;;;;1.70;0.95;;;;;;;22.01;68.08;98588.84;5061105;28;20045;-80
2021/07/06 09:44:15;;;;;;;1.80;1.30;;;;;;;21.71;69.95;98607.00;5052005;28;20060;-78
2021/07/06 09:46:55;;;;;;;3.97;0.93;;;;;;;21.71;70.49;98589.59;5063055;28;20049;-78
2021/07/06 09:49:23;;;;;;;2.15;1.13;;;;;;;21.65;70.92;98588.75;5060697;28;20053;-77
2021/07/06 09:51:52;;;;;;;1.25;1.10;;;;;;;21.66;71.01;98600.63;5052274;28;20056;-78
2021/07/06 09:54:26;;;;;;;1.10;0.93;;;;;;;21.61;71.41;98608.91;5062674;28;20593;-78
2021/07/06 09:56:54;;;;;;;2.85;1.23;;;;;;;21.89;70.94;98604.88;5072210;28;20480;-78
2021/07/06 09:59:26;;;;;;;2.13;1.02;;;;;;;22.45;68.73;98593.88;5067436;28;20084;-78
2021/07/06 10:01:55;;;;;;;0.65;0.60;;;;;;;22.76;66.28;98606.88;5059098;28;20420;-78
2021/07/06 10:04:25;;;;;;;0.93;0.75;;;;;;;22.22;67.57;98578.63;5071307;28;20044;-78
2021/07/06 10:06:52;;;;;;;1.23;0.82;;;;;;;22.26;67.15;98579.69;5067196;28;20555;-78
2021/07/06 10:09:19;;;;;;;1.63;1.15;;;;;;;22.37;66.23;98554.81;5072297;28;20048;-78
2021/07/06 10:11:46;;;;;;;2.22;0.90;;;;;;;22.59;65.92;98555.34;5054979;28;20638;-78
2021/07/06 10:14:16;;;;;;;1.58;0.70;;;;;;;22.37;66.35;98538.22;5065892;28;20064;-78
2021/07/06 10:16:43;;;;;;;0.65;0.63;;;;;;;22.75;65.25;98542.31;5057819;28;20138;-78
2021/07/06 10:19:13;;;;;;;1.15;0.60;;;;;;;22.96;63.22;98545.06;5051896;28;20086;-78
2021/07/06 10:21:40;;;;;;;3.35;0.70;;;;;;;23.33;63.07;98529.97;5058116;28;20484;-78
2021/07/06 10:24:08;;;;;;;0.82;0.70;;;;;;;23.94;62.18;98539.91;5051447;28;20106;-78
2021/07/06 10:26:38;;;;;;;3.13;0.82;;;;;;;23.81;63.40;98540.53;5057846;28;20558;-78
2021/07/06 10:29:05;;;;;;;1.55;0.85;;;;;;;23.77;62.54;98518.09;5072113;28;20461;-78
2021/07/06 10:31:42;;;;;;;3.20;1.00;;;;;;;23.85;61.99;98539.69;5062228;28;20553;-78
2021/07/06 10:34:22;;;;;;;0.65;0.50;;;;;;;23.38;60.98;98531.88;5071438;28;20084;-78
2021/07/06 10:36:49;;;;;;;;;;;;;;;23.18;62.32;98532.81;5069286;28;20083;-78
2021/07/06 10:39:18;;;;;;;1.80;0.70;;;;;;;22.94;63.60;98511.22;5056847;28;19921;-78
2021/07/06 10:41:53;;;;;;;0.60;0.60;;;;;;;23.38;64.66;98535.50;5051692;28;20527;-80
2021/07/06 10:44:32;;;;;;;1.15;0.60;;;;;;;23.34;64.02;98526.09;5068065;28;20056;-78
2021/07/06 10:46:59;;;;;;;1.08;0.57;;;;;;;23.50;64.49;98515.72;5061594;28;20083;-78
2021/07/06 10:49:33;;;;;;;4.82;0.63;;;;;;;23.84;62.15;98506.66;5067282;28;20056;-79
2021/07/06 10:52:02;;;;;;;0.80;0.47;;;;;;;24.08;58.64;98500.41;5069321;28;20040;-79
2021/07/06 10:54:32;;;;;;;2.38;0.82;;;;;;;24.26;59.61;98508.03;5058788;28;20049;-79
2021/07/06 10:57:12;;;;;;;1.05;0.52;;;;;;;24.46;57.41;98481.16;5052718;28;20412;-79
2021/07/06 10:59:39;;;;;;;1.17;0.55;;;;;;;24.49;57.16;98475.84;5057562;28;20443;-79
2021/07/06 11:02:07;;;;;;;0.55;0.55;;;;;;;24.68;57.70;98469.59;5071140;28;20423;-79
2021/07/06 11:05:09;;;;;;;0.73;0.30;;;;;;;24.95;55.75;98471.78;5070271;28;20057;-79
2021/07/06 11:08:01;;;;;;;0.45;0.45;;;;;;;24.50;56.54;98473.91;5051270;28;20049;-79
2021/07/06 11:10:43;;;;;;;0.40;0.40;;;;;;;24.59;55.09;98469.41;5037913;28;20484;-79
2021/07/06 11:13:29;;;;;;;0.85;0.63;;;;;;;24.55;56.95;98477.47;5071126;28;20086;-79
2021/07/06 11:15:58;;;;;;;1.35;0.50;;;;;;;24.37;56.76;98483.75;5068620;28;21449;-79
2021/07/06 11:18:48;;;;;;;0.80;0.60;;;;;;;24.55;56.04;98462.72;5071399;28;20051;-80
2021/07/06 11:21:36;;;;;;;0.75;0.65;;;;;;;24.50;56.71;98494.19;5067874;28;20044;-79
2021/07/06 11:24:22;;;;;;;2.42;0.57;;;;;;;24.63;57.48;98505.75;5051247;28;20451;-79
2021/07/06 11:26:49;;;;;;;0.77;0.50;;;;;;;24.86;56.80;98516.06;5063525;28;20049;-79
2021/07/06 11:29:25;;;;;;;0.52;0.52;;;;;;;24.99;55.80;98517.34;5054876;28;20053;-80
2021/07/06 11:32:19;;;;;;;1.00;0.60;;;;;;;24.69;55.43;98499.00;5069637;28;20045;-80
2021/07/06 11:34:47;;;;;;;3.05;1.63;;;;;;;24.62;56.16;98507.72;5037482;28;20078;-80
2021/07/06 11:37:15;;;;;;;1.33;0.70;;;;;;;24.36;57.86;98507.13;5071649;28;20075;-79
2021/07/06 11:39:44;;;;;;;2.35;0.60;;;;;;;24.01;58.39;98509.91;5057471;28;20094;-79
2021/07/06 11:42:11;;;;;;;1.55;0.73;;;;;;;24.16;59.62;98531.16;5054652;28;20053;-79
2021/07/06 11:44:46;;;;;;;0.30;0.30;;;;;;;24.28;58.19;98527.16;5055663;28;20053;-79
2021/07/06 11:47:14;;;;;;;0.40;0.40;;;;;;;24.08;59.36;98534.53;5065450;28;20127;-80
2021/07/06 11:49:41;;;;;;;0.28;0.28;;;;;;;23.88;60.51;98541.06;5073382;28;20084;-79
2021/07/06 11:52:08;;;;;;;1.05;0.63;;;;;;;23.65;60.70;98550.88;5064062;28;20048;-80
2021/07/06 11:54:35;;;;;;;0.60;0.55;;;;;;;23.69;59.78;98560.31;5063319;28;20056;-79
2021/07/06 11:57:05;;;;;;;0.68;0.50;;;;;;;24.25;61.95;98567.44;5074770;28;20053;-79
2021/07/06 11:59:31;;;;;;;2.72;0.45;;;;;;;24.49;60.32;98564.75;5053999;28;20099;-79
2021/07/06 12:02:07;;;;;;;3.50;0.63;;;;;;;24.25;59.37;98561.06;5053997;28;20056;-80
2021/07/06 12:04:34;;;;;;;2.28;0.68;;;;;;;23.78;59.44;98561.34;5072501;28;20468;-80
2021/07/06 12:07:06;;;;;;;1.38;0.50;;;;;;;23.89;62.37;98586.31;5074558;28;20064;-79
2021/07/06 12:09:33;;;;;;;2.50;0.28;;;;;;;23.60;61.61;98587.00;5073883;28;20048;-79
2021/07/06 12:12:16;;;;;;;0.43;0.40;;;;;;;23.75;62.69;98611.06;5054015;28;20053;-79
2021/07/06 12:14:45;;;;;;;1.85;0.50;;;;;;;23.75;61.89;98586.09;5053894;28;20488;-80
2021/07/06 12:17:14;;;;;;;2.17;0.50;;;;;;;23.24;62.79;98585.19;5072020;28;20048;-79
2021/07/06 12:19:41;;;;;;;1.02;0.30;;;;;;;23.26;62.21;98580.19;5074312;28;20052;-79
2021/07/06 12:22:08;;;;;;;2.92;0.52;;;;;;;23.21;63.78;98594.06;5059576;28;20136;-79
2021/07/06 12:24:35;;;;;;;3.55;0.70;;;;;;;23.31;62.82;98598.75;5053838;28;20049;-79
2021/07/06 12:27:02;;;;;;;0.57;0.45;;;;;;;23.48;62.55;98602.00;5068560;28;20056;-79
2021/07/06 12:29:31;;;;;;;1.27;0.77;;;;;;;23.84;61.67;98587.97;5066998;28;20060;-79
2021/07/06 12:31:58;;;;;;;1.40;0.57;;;;;;;23.90;59.86;98580.47;5053867;28;20051;-79
2021/07/06 12:34:35;;;;;;;0.63;0.40;;;;;;;23.90;60.28;98574.91;5055196;28;20060;-79
2021/07/06 12:37:03;;;;;;;1.52;1.42;;;;;;;23.63;59.59;98569.78;5054615;28;20068;-79
2021/07/06 12:39:33;;;;;;;0.25;0.25;;;;;;;23.41;61.41;98597.88;5064259;28;20056;-79
2021/07/06 12:42:01;;;;;;;;;;;;;;;23.34;62.37;98598.19;5059859;28;20132;-79
2021/07/06 12:44:35;;;;;;;0.60;0.47;;;;;;;23.19;61.94;98590.75;5070918;28;19924;-79
2021/07/06 12:47:13;;;;;;;1.02;0.50;;;;;;;22.89;62.82;98597.16;5053332;28;20649;-79
2021/07/06 12:49:40;;;;;;;0.30;0.30;;;;;;;22.60;64.29;98595.81;5071428;28;20385;-79
2021/07/06 12:52:08;;;;;;;0.40;0.40;;;;;;;22.50;64.26;98598.56;5056413;28;20052;-79
2021/07/06 12:54:35;;;;;;;0.50;0.50;;;;;;;22.24;65.87;98583.88;5073202;28;20132;-79
2021/07/06 12:57:04;;;;;;;0.50;0.50;;;;;;;22.37;65.16;98599.97;5072706;28;20488;-78
2021/07/06 12:59:34;;;;;;;0.50;0.50;;;;;;;22.52;64.42;98587.22;5054997;28;20132;-78
2021/07/06 13:02:17;;;;;;;;;;;;;;;22.86;64.31;98611.59;5058070;28;20044;-78
2021/07/06 13:04:53;;;;;;;0.28;0.28;;;;;;;22.81;63.76;98601.34;5068784;28;19924;-78
2021/07/06 13:07:21;;;;;;;0.43;0.40;;;;;;;22.87;62.52;98602.16;5053324;28;20450;-78
2021/07/06 13:10:04;;;;;;;1.23;0.40;;;;;;;22.83;63.42;98607.44;5053558;28;20462;-78
2021/07/06 13:12:31;;;;;;;1.90;0.95;;;;;;;22.40;64.64;98588.34;5054920;28;20048;-79
2021/07/06 13:14:59;;;;;;;0.52;0.45;;;;;;;22.67;64.56;98600.25;5062045;28;20110;-78
2021/07/06 13:17:28;;;;;;;0.30;0.30;;;;;;;22.97;62.94;98616.00;5055430;28;20045;-77
2021/07/06 13:20:07;;;;;;;0.40;0.30;;;;;;;22.78;63.92;98621.28;5052567;28;20149;-78
2021/07/06 13:22:34;;;;;;;0.70;0.43;;;;;;;22.89;63.60;98611.03;5063021;28;20375;-78
2021/07/06 13:25:01;;;;;;;1.85;0.43;;;;;;;22.62;62.82;98603.84;5072328;28;20041;-78
2021/07/06 13:27:32;;;;;;;0.55;0.38;;;;;;;22.66;64.01;98598.56;5062913;28;20044;-78
2021/07/06 13:30:01;;;;;;;0.40;0.40;;;;;;;22.50;63.56;98589.44;5052242;28;20045;-78
2021/07/06 13:32:29;;;;;;;1.02;0.40;;;;;;;22.78;62.63;98601.91;5060384;28;20044;-78
2021/07/06 13:34:56;;;;;;;0.40;0.40;;;;;;;22.89;63.45;98603.53;5071836;28;20499;-78
2021/07/06 13:37:26;;;;;;;1.23;0.55;;;;;;;22.71;62.35;98607.72;5053435;28;20060;-79
2021/07/06 13:39:52;;;;;;;0.63;0.40;;;;;;;22.90;64.61;98624.59;5064039;28;20051;-79
2021/07/06 13:42:19;;;;;;;0.50;0.50;;;;;;;23.10;62.93;98615.44;5071896;28;20061;-79
2021/07/06 13:44:46;;;;;;;1.48;0.52;;;;;;;23.19;62.36;98628.75;5061585;28;20060;-78
2021/07/06 13:47:18;;;;;;;1.58;0.32;;;;;;;23.21;61.94;98626.50;5061923;28;20048;-78
2021/07/06 13:49:44;;;;;;;1.25;0.50;;;;;;;23.03;62.29;98623.19;5060623;28;20091;-78
2021/07/06 13:52:11;;;;;;;0.40;0.40;;;;;;;23.29;62.70;98640.63;5051906;28;20051;-78
2021/07/06 13:54:39;;;;;;;0.68;0.38;;;;;;;23.38;62.50;98642.81;5057905;28;20059;-79
2021/07/06 13:57:09;;;;;;;2.13;0.52;;;;;;;23.44;61.04;98652.78;5072249;28;20068;-78
2021/07/06 13:59:36;;;;;;;1.23;0.35;;;;;;;23.25;61.88;98642.31;5065875;28;20052;-79
2021/07/06 14:02:03;;;;;;;3.63;0.35;;;;;;;23.09;62.86;98635.94;5051624;28;20056;-80
2021/07/06 14:04:31;;;;;;;0.35;0.35;;;;;;;23.10;62.57;98640.38;5059841;28;20088;-80
2021/07/06 14:06:59;;;;;;;0.30;0.30;;;;;;;22.94;63.10;98644.25;5063795;28;20048;-80
2021/07/06 14:09:25;;;;;;;0.40;0.40;;;;;;;22.82;64.05;98647.31;5054567;28;20492;-80
2021/07/06 14:11:52;;;;;;;0.73;0.47;;;;;;;22.73;63.23;98646.22;5052257;28;20048;-80
2021/07/06 14:14:19;;;;;;;1.38;0.57;;;;;;;22.98;64.38;98643.44;5058291;28;20049;-80
2021/07/06 14:16:46;;;;;;;3.45;0.50;;;;;;;23.08;63.13;98625.13;5064590;28;20480;-80
2021/07/06 14:19:13;;;;;;;0.70;0.30;;;;;;;23.28;63.36;98643.69;5050822;28;20049;-80
2021/07/06 14:21:41;;;;;;;2.17;0.50;;;;;;;23.54;60.70;98636.09;5054644;28;20507;-80
2021/07/06 14:24:08;;;;;;;2.92;0.65;;;;;;;23.52;60.65;98624.47;5062028;28;20052;-80
2021/07/06 14:26:35;;;;;;;0.40;0.40;;;;;;;23.39;61.68;98611.22;5071208;28;20362;-79
2021/07/06 14:29:02;;;;;;;0.65;0.40;;;;;;;23.01;63.40;98610.72;5060117;28;20555;-80
2021/07/06 14:31:29;;;;;;;0.32;0.32;;;;;;;23.13;62.38;98597.44;5064924;28;20048;-80
2021/07/06 14:33:56;;;;;;;1.05;0.50;;;;;;;23.33;62.00;98611.25;5070896;28;20488;-80
2021/07/06 14:36:23;;;;;;;0.20;0.20;;;;;;;23.02;62.12;98582.72;5069843;28;20095;-80
2021/07/06 14:38:51;;;;;;;2.72;0.65;;;;;;;22.91;65.11;98583.84;5071886;28;20455;-80
2021/07/06 14:41:19;;;;;;;1.05;0.43;;;;;;;22.63;65.88;98584.19;5059270;28;20051;-80
2021/07/06 14:43:49;;;;;;;1.20;0.43;;;;;;;22.61;66.64;98569.78;5065298;28;20683;-79
2021/07/06 14:46:16;;;;;;;0.75;0.50;;;;;;;22.40;70.43;98568.97;5059736;28;20052;-79
2021/07/06 14:48:44;;;;;;;1.00;0.50;;;;;;;22.33;68.60;98559.28;5071318;28;20051;-79
2021/07/06 14:51:10;;;;;;;2.72;0.60;;;;;;;22.34;69.69;98560.91;5059123;28;20037;-79
2021/07/06 14:53:38;;;;;;;0.43;0.43;;;;;;;22.06;71.67;98563.91;5063342;28;20071;-79
2021/07/06 14:56:06;;;;;;;1.92;0.50;;;;;;;22.19;71.49;98553.41;5058960;28;20260;-79
2021/07/06 14:58:33;;;;;;;0.65;0.60;;;;;;;22.03;70.50;98558.94;5060087;28;20053;-79
2021/07/06 15:01:00;;;;;;;1.00;0.50;;;;;;;22.13;72.02;98566.44;5058732;28;20053;-79
2021/07/06 15:03:27;;;;;;;1.95;0.70;;;;;;;22.06;73.05;98563.09;5068351;28;20049;-80
2021/07/06 15:05:56;;;;;;;0.50;0.50;;;;;;;22.01;74.00;98555.63;5057795;28;20052;-79
2021/07/06 15:08:23;;;;;;;0.55;0.55;;;;;;;22.07;74.86;98553.66;5057595;28;20052;-80
2021/07/06 15:10:50;;;;;;;3.70;0.70;;;;;;;22.00;74.28;98556.72;5075289;28;20048;-80
2021/07/06 15:13:19;;;;;;;0.50;0.40;;;;;;;21.95;75.43;98562.25;5055308;28;20056;-80
2021/07/06 15:15:45;;;;;;;0.63;0.60;;;;;;;21.88;77.96;98561.69;5053793;28;20571;-80
2021/07/06 15:18:12;;;;;;;1.58;0.30;;;;;;;21.87;77.79;98573.84;5056047;28;20045;-79
2021/07/06 15:20:39;;;;;;;1.20;0.50;;;;;;;21.93;76.10;98567.22;5054427;28;20103;-80
2021/07/06 15:23:06;;;;;;;0.60;0.60;;;;;;;22.09;71.41;98574.44;5054477;28;20041;-80
2021/07/06 15:25:33;;;;;;;1.98;0.70;;;;;;;21.82;73.45;98565.56;5053890;28;20463;-80
2021/07/06 15:28:00;;;;;;;1.30;0.90;;;;;;;21.66;76.64;98573.78;5068175;28;20044;-80
2021/07/06 15:30:29;;;;;;;4.50;0.82;;;;;;;21.70;77.72;98574.09;5073643;28;20049;-80
2021/07/06 15:32:55;;;;;;;0.55;0.55;;;;;;;21.62;78.89;98553.34;5060361;28;20053;-80
2021/07/06 15:35:23;;;;;;;0.63;0.60;;;;;;;21.64;77.68;98566.88;5072741;28;20049;-80
2021/07/06 15:37:52;;;;;;;0.65;0.63;;;;;;;21.60;76.49;98569.34;5061000;28;20060;-80
2021/07/06 15:40:20;;;;;;;0.82;0.60;;;;;;;21.56;76.97;98577.38;5055671;28;20088;-80
2021/07/06 15:42:47;;;;;;;0.80;0.80;;;;;;;21.17;77.08;98588.78;5056385;28;20476;-80
2021/07/06 15:45:14;;;;;;;2.08;0.70;;;;;;;21.11;75.30;98592.63;5057557;28;20041;-79
2021/07/06 15:47:42;;;;;;;0.70;0.70;;;;;;;21.14;79.24;98591.25;5074497;28;20488;-79
2021/07/06 15:50:10;;;;;;;2.20;0.70;;;;;;;20.84;77.45;98595.50;5071453;28;20066;-79
2021/07/06 15:52:38;;;;;;;1.33;0.80;;;;;;;20.84;76.66;98604.59;5070217;28;20052;-79
2021/07/06 15:55:06;;;;;;;1.13;0.88;;;;;;;20.69;77.58;98608.09;5064198;28;20442;-79
2021/07/06 15:57:33;;;;;;;1.83;0.75;;;;;;;20.46;80.33;98589.94;5060402;28;20052;-79
2021/07/06 16:00:00;;;;;;;1.63;1.00;;;;;;;20.47;82.00;98612.84;5053891;28;20065;-79
2021/07/06 16:02:27;;;;;;;2.03;1.02;;;;;;;20.29;80.67;98616.84;5056533;28;20045;-79
2021/07/06 16:04:56;;;;;;;0.68;0.65;;;;;;;20.37;82.45;98632.09;5053751;28;20073;-79
2021/07/06 16:07:23;;;;;;;1.52;0.90;;;;;;;20.34;85.61;98617.72;5062415;28;20055;-79
2021/07/06 16:09:51;;;;;;;3.17;0.95;;;;;;;20.28;87.44;98609.69;5053789;28;20183;-79
2021/07/06 16:12:20;;;;;;;1.58;1.00;;;;;;;20.26;87.86;98603.56;5062739;28;20052;-79
2021/07/06 16:14:47;;;;;;;1.95;0.90;;;;;;;20.10;89.94;98581.34;5053024;28;20048;-79
2021/07/06 16:17:17;;;;;;;1.70;1.02;;;;;;;20.17;86.44;98578.38;5053452;28;20041;-80
2021/07/06 16:19:44;;;;;;;1.30;0.80;;;;;;;20.22;84.33;98583.09;5070068;28;20056;-81
2021/07/06 16:22:12;;;;;;;1.10;0.98;;;;;;;20.11;85.86;98591.31;5065538;28;20471;-80
2021/07/06 16:24:41;;;;;;;1.27;0.73;;;;;;;20.14;84.59;98599.06;5054895;28;20045;-79
2021/07/06 16:27:10;;;;;;;2.03;1.13;;;;;;;19.89;86.49;98568.47;5053328;28;20496;-79
2021/07/06 16:29:45;;;;;;;1.30;1.08;;;;;;;19.93;87.21;98569.59;5066843;28;20044;-79
2021/07/06 16:32:15;;;;;;;2.45;1.45;;;;;;;19.83;87.96;98559.31;5060603;28;20063;-79
2021/07/06 16:34:43;;;;;;;2.38;1.00;;;;;;;19.86;87.85;98564.28;5060302;28;20041;-79
2021/07/06 16:37:12;;;;;;;1.38;1.05;;;;;;;20.00;88.45;98567.47;5073792;28;20274;-80
2021/07/06 16:39:39;;;;;;;1.80;1.13;;;;;;;20.09;87.09;98559.53;5071356;28;20049;-79
2021/07/06 16:42:08;;;;;;;2.45;0.90;;;;;;;20.03;86.71;98583.47;5073232;28;20075;-80
2021/07/06 16:44:35;;;;;;;1.60;1.10;;;;;;;19.95;87.07;98593.06;5062762;28;20045;-79
2021/07/06 16:47:02;;;;;;;1.33;1.20;;;;;;;19.73;85.73;98584.81;5068284;28;20446;-80
2021/07/06 16:49:29;;;;;;;1.58;1.02;;;;;;;19.80;87.59;98581.88;5065568;28;20083;-79
2021/07/06 17:58:36;;;;;;;4.82;1.40;;;;;;;19.53;91.96;98659.03;4980323;28;20120;-78
2021/07/06 18:01:04;;;;;;;3.85;1.27;;;;;;;19.56;92.01;98651.06;4988104;28;20409;-79
2021/07/06 18:03:30;;;;;;;1.50;1.25;;;;;;;19.45;90.51;98652.00;5012251;28;20044;-79
2021/07/06 18:06:00;;;;;;;1.70;1.30;;;;;;;19.48;90.41;98659.78;5070950;28;20054;-79
2021/07/06 18:08:30;;;;;;;1.88;1.20;;;;;;;19.48;89.89;98664.44;5053994;28;20521;-79
2021/07/06 18:10:58;;;;;;;1.63;1.20;;;;;;;19.40;90.77;98643.69;5069003;28;20040;-79
2021/07/06 18:13:26;;;;;;;4.40;1.20;;;;;;;19.39;90.83;98650.28;5056383;28;20049;-79
2021/07/06 18:15:54;;;;;;;2.33;1.13;;;;;;;19.40;92.23;98662.97;5057185;28;20051;-80
2021/07/06 18:18:23;;;;;;;2.20;1.33;;;;;;;19.42;92.44;98661.63;5070965;28;20044;-79
2021/07/06 18:20:51;;;;;;;2.05;1.27;;;;;;;19.26;92.77;98652.31;5073202;28;20048;-81
2021/07/06 18:23:20;;;;;;;1.58;1.08;;;;;;;19.21;93.40;98644.00;5072669;28;20144;-80
2021/07/06 18:25:47;;;;;;;4.35;1.40;;;;;;;19.24;94.40;98665.53;5055949;28;20400;-80
2021/07/06 18:28:15;;;;;;;5.75;1.13;;;;;;;19.14;96.25;98664.53;5051249;28;20056;-80
2021/07/06 18:30:42;;;;;;;5.68;3.50;;;;;;;19.10;97.08;98692.59;5055419;28;20128;-81
2021/07/06 18:33:10;;;;;;;7.35;3.63;;;;;;;18.93;98.27;98689.84;5054799;28;20075;-81
2021/07/06 18:35:39;;;;;;;5.32;1.90;;;;;;;19.00;98.32;98711.72;5056644;28;20044;-81
2021/07/06 18:38:06;;;;;;;13.57;2.88;;;;;;;19.07;97.63;98712.41;5051869;28;20055;-81
2021/07/06 18:40:35;;;;;;;2.78;1.30;;;;;;;19.10;98.57;98733.94;5052879;28;20560;-81
2021/07/06 18:43:03;;;;;;;2.05;1.30;;;;;;;19.05;99.03;98731.06;5070060;28;20059;-81
2021/07/06 18:45:31;;;;;;;5.63;2.00;;;;;;;19.03;99.68;98736.00;5068639;28;20045;-81
2021/07/06 18:48:01;;;;;;;4.20;1.90;;;;;;;18.81;100.00;98741.38;5058184;28;20064;-82
2021/07/06 18:50:32;;;;;;;4.80;1.58;;;;;;;18.84;100.00;98754.66;5059136;28;20050;-82
2021/07/06 18:53:00;;;;;;;4.97;1.42;;;;;;;18.78;100.00;98755.66;5050458;28;20057;-82
2021/07/06 18:55:27;;;;;;;6.15;1.70;;;;;;;18.79;100.00;98750.97;5070402;28;20044;-83
2021/07/06 18:57:54;;;;;;;10.40;1.98;;;;;;;18.80;100.00;98752.66;5070947;28;20427;-82
2021/07/06 19:00:21;;;;;;;4.90;1.80;;;;;;;18.93;100.00;98755.13;5058944;28;20483;-82
2021/07/06 19:02:54;;;;;;;5.50;1.90;;;;;;;18.66;100.00;98747.47;5050526;28;20056;-81
2021/07/06 19:05:21;;;;;;;3.90;1.60;;;;;;;18.80;100.00;98755.41;5059245;28;20045;-81
2021/07/06 19:07:51;;;;;;;6.45;1.48;;;;;;;18.91;100.00;98754.53;5068644;28;20051;-81
2021/07/06 19:10:20;;;;;;;6.63;2.20;;;;;;;18.88;100.00;98744.03;5056126;28;20136;-81
2021/07/06 19:12:47;;;;;;;5.03;1.60;;;;;;;18.71;100.00;98731.06;5054047;28;20067;-82
2021/07/06 19:15:17;;;;;;;4.10;1.67;;;;;;;18.75;100.00;98743.22;5058333;28;20033;-82
2021/07/06 19:17:49;;;;;;;3.92;2.42;;;;;;;18.67;100.00;98726.28;5066221;28;20048;-81
2021/07/06 19:20:18;;;;;;;5.60;1.88;;;;;;;18.52;100.00;98729.59;5066962;28;20045;-82
2021/07/06 19:22:45;;;;;;;3.35;1.52;;;;;;;18.52;99.84;98741.44;5066402;28;20049;-82
2021/07/06 19:25:31;;;;;;;6.13;2.80;;;;;;;18.37;100.00;98747.50;5055931;28;20405;-82
2021/07/06 19:33:27;;;;;;;9.65;1.60;;;;;;;18.33;95.90;98771.06;5057074;28;20416;-82
2021/07/06 19:35:54;;;;;;;3.35;1.15;;;;;;;18.30;93.41;98779.81;5059397;28;20044;-81
2021/07/06 19:38:21;;;;;;;2.88;1.10;;;;;;;18.26;88.26;98764.03;5050748;28;20056;-83